Time;durP1;ratioP1;P1;durP2;ratioP2;P2;SDS_P1;SDS_P2;PMS_P1;PMS_P2;Temp;Humidity;BMP_temperature;BMP_pressure;BME280_temperature;BME280_humidity;BME280_pressure;Samples;Min_cycle;Max_cycle;Signal;HPM_P1;HPM_P2
2022/08/20 00:02:56;;;;;;;31.33;23.57;;;20.00;99.90;;;;;;2618659;39;20514;-82
2022/08/20 00:08:44;;;;;;;39.03;26.43;;;19.90;99.90;;;;;;2618381;54;20468;-83
2022/08/20 00:14:33;;;;;;;38.17;25.90;;;20.00;99.90;;;;;;2617949;54;20437;-83
2022/08/20 00:20:23;;;;;;;38.40;24.20;;;19.90;99.90;;;;;;2616310;54;20398;-77
2022/08/20 00:26:12;;;;;;;37.70;25.70;;;19.70;99.90;;;;;;2617376;39;20824;-77
2022/08/20 00:32:00;;;;;;;38.80;25.53;;;19.70;99.90;;;;;;2617300;54;20531;-79
2022/08/20 00:37:48;;;;;;;42.17;26.03;;;19.60;99.90;;;;;;2618224;54;20152;-82
2022/08/20 00:43:40;;;;;;;40.13;27.13;;;19.50;99.90;;;;;;2618313;54;20426;-84
2022/08/20 00:49:31;;;;;;;39.17;28.10;;;19.60;99.90;;;;;;2618806;54;20396;-81
2022/08/20 00:55:21;;;;;;;38.50;26.80;;;19.60;99.90;;;;;;2619134;39;20743;-81
2022/08/20 01:01:10;;;;;;;40.03;28.17;;;19.60;99.90;;;;;;2618820;54;20390;-81
2022/08/20 01:06:59;;;;;;;41.80;28.40;;;19.50;99.90;;;;;;2618019;54;20345;-84
2022/08/20 01:12:47;;;;;;;47.10;29.10;;;19.50;99.90;;;;;;2617986;46;20532;-82
2022/08/20 01:18:38;;;;;;;41.67;25.73;;;19.50;99.90;;;;;;2618017;54;20474;-83
2022/08/20 01:21:56;;;;;;;43.40;28.10;;;19.50;99.90;;;;;;2617739;54;20403;-82
2022/08/20 01:27:45;;;;;;;42.10;26.10;;;19.40;99.90;;;;;;2618893;54;20393;-83
2022/08/20 01:33:33;;;;;;;39.30;26.57;;;19.30;99.90;;;;;;2617439;54;20444;-82
2022/08/20 01:39:25;;;;;;;42.20;26.40;;;19.30;99.90;;;;;;2617972;54;20393;-82
2022/08/20 01:45:13;;;;;;;40.23;26.67;;;19.30;99.90;;;;;;2618133;54;20383;-82
2022/08/20 01:51:08;;;;;;;43.87;27.50;;;19.20;99.90;;;;;;2619137;54;20173;-82
2022/08/20 01:57:02;;;;;;;46.33;29.50;;;19.30;99.90;;;;;;2619763;54;20387;-81
2022/08/20 02:02:50;;;;;;;43.17;26.10;;;19.30;99.90;;;;;;2618953;39;20764;-82
2022/08/20 02:08:38;;;;;;;43.67;28.97;;;19.30;99.90;;;;;;2616994;39;20796;-78
2022/08/20 02:14:26;;;;;;;50.93;29.77;;;19.30;99.90;;;;;;2615939;54;20169;-78
2022/08/20 02:23:39;;;;;;;50.53;29.27;;;19.20;99.90;;;;;;2616433;39;20838;-78
2022/08/20 02:29:28;;;;;;;49.67;31.57;;;19.10;99.90;;;;;;2616657;54;20379;-78
2022/08/20 02:35:17;;;;;;;53.73;31.80;;;19.10;99.90;;;;;;2616696;54;20425;-80
2022/08/20 02:38:01;;;;;;;52.93;31.27;;;19.10;99.90;;;;;;2617221;39;20792;-79
2022/08/20 02:40:28;;;;;;;46.80;28.20;;;19.10;99.90;;;;;;2615748;47;20413;-79
2022/08/20 02:46:18;;;;;;;46.80;28.37;;;19.10;99.90;;;;;;2616161;54;20393;-78
2022/08/20 02:52:06;;;;;;;49.63;30.40;;;19.10;99.90;;;;;;2616796;39;20917;-78
2022/08/20 02:57:55;;;;;;;49.27;32.43;;;19.00;99.90;;;;;;2616731;46;20148;-79
2022/08/20 03:03:43;;;;;;;54.60;32.10;;;19.00;99.90;;;;;;2617004;54;20387;-79
2022/08/20 03:09:31;;;;;;;52.13;29.70;;;18.90;99.90;;;;;;2616944;54;20491;-80
2022/08/20 03:15:19;;;;;;;55.50;31.87;;;18.80;99.90;;;;;;2616720;54;20389;-79
2022/08/20 03:24:29;;;;;;;46.57;29.30;;;18.80;99.90;;;;;;2616383;54;20466;-79
2022/08/20 03:30:18;;;;;;;54.70;28.80;;;18.90;99.90;;;;;;2617057;54;20240;-77
2022/08/20 03:36:06;;;;;;;48.17;26.67;;;18.90;99.90;;;;;;2616967;54;20471;-79
2022/08/20 03:41:54;;;;;;;40.37;25.53;;;18.90;99.90;;;;;;2616980;46;20425;-79
2022/08/20 03:47:42;;;;;;;38.83;23.33;;;18.80;99.90;;;;;;2617016;39;20776;-77
2022/08/20 03:53:30;;;;;;;43.30;25.33;;;18.80;99.90;;;;;;2616305;54;20144;-77
2022/08/20 03:59:18;;;;;;;38.10;25.47;;;18.80;99.90;;;;;;2617035;54;20110;-81
2022/08/20 04:05:06;;;;;;;36.60;22.13;;;18.70;99.90;;;;;;2616861;54;20130;-81
2022/08/20 04:10:58;;;;;;;35.67;22.43;;;18.70;99.90;;;;;;2616524;54;20394;-82
2022/08/20 04:16:46;;;;;;;35.87;24.80;;;18.50;99.90;;;;;;2616848;54;20365;-80
2022/08/20 04:19:58;;;;;;;37.70;23.50;;;18.40;99.90;;;;;;2616284;47;20415;-82
2022/08/20 04:22:24;;;;;;;34.37;23.43;;;18.40;99.90;;;;;;2616587;47;20155;-82
2022/08/20 04:28:15;;;;;;;39.13;26.60;;;18.50;99.90;;;;;;2617055;54;20120;-82
2022/08/20 04:34:06;;;;;;;50.23;26.27;;;18.30;99.90;;;;;;2616484;54;20386;-82
2022/08/20 04:46:05;;;;;;;48.77;24.90;;;18.40;99.90;;;;;;2617181;31;20806;-78
2022/08/20 04:51:53;;;;;;;44.07;24.90;;;18.50;99.90;;;;;;2616214;54;20407;-78
2022/08/20 04:57:41;;;;;;;42.10;25.83;;;18.50;99.90;;;;;;2616441;54;20393;-78
2022/08/20 05:03:29;;;;;;;39.13;24.27;;;18.60;99.90;;;;;;2615862;54;20223;-78
2022/08/20 05:09:17;;;;;;;36.47;24.70;;;18.70;99.90;;;;;;2616046;54;20465;-79
2022/08/20 05:15:05;;;;;;;42.87;25.67;;;18.90;99.90;;;;;;2616842;54;20119;-76
2022/08/20 05:24:33;;;;;;;43.27;25.60;;;19.20;99.90;;;;;;2617115;39;20801;-77
2022/08/20 05:30:20;;;;;;;48.97;26.23;;;19.10;99.90;;;;;;2616825;54;20414;-78
2022/08/20 05:36:08;;;;;;;40.73;25.20;;;19.10;99.90;;;;;;2616877;54;20245;-78
2022/08/20 05:41:56;;;;;;;41.17;25.20;;;19.00;99.90;;;;;;2617087;54;20137;-80
2022/08/20 05:47:44;;;;;;;45.17;25.30;;;19.10;99.90;;;;;;2616897;54;20379;-77
2022/08/20 05:53:31;;;;;;;43.83;26.10;;;19.10;99.90;;;;;;2616361;54;20218;-78
2022/08/20 05:59:21;;;;;;;40.70;24.30;;;19.00;99.90;;;;;;2616778;54;20222;-78
2022/08/20 06:05:09;;;;;;;45.30;27.50;;;19.00;99.90;;;;;;2616671;54;20394;-77
2022/08/20 06:10:57;;;;;;;42.70;26.93;;;19.10;99.90;;;;;;2616567;54;20403;-79
2022/08/20 06:16:45;;;;;;;34.33;24.00;;;19.00;99.90;;;;;;2616602;54;20150;-79
2022/08/20 06:20:00;;;;;;;34.83;23.70;;;19.10;99.90;;;;;;2615663;47;20404;-79
2022/08/20 06:22:25;;;;;;;30.70;22.87;;;19.20;99.90;;;;;;2616179;54;20457;-80
2022/08/20 06:28:13;;;;;;;27.00;21.30;;;19.20;99.90;;;;;;2616493;54;20658;-80
2022/08/20 06:34:01;;;;;;;34.83;22.57;;;19.30;99.90;;;;;;2616583;54;20140;-79
2022/08/20 06:39:50;;;;;;;27.73;20.67;;;19.40;99.90;;;;;;2616676;54;20142;-79
2022/08/20 06:45:38;;;;;;;19.40;17.40;;;19.50;99.90;;;;;;2616918;54;20382;-78
2022/08/20 06:51:26;;;;;;;22.17;17.50;;;19.50;99.90;;;;;;2616398;54;20376;-78
2022/08/20 06:57:14;;;;;;;24.30;18.00;;;19.50;99.90;;;;;;2616907;54;20134;-78
2022/08/20 07:03:03;;;;;;;27.80;18.63;;;19.50;99.90;;;;;;2616307;54;20394;-79
2022/08/20 07:08:51;;;;;;;23.27;18.60;;;19.50;99.90;;;;;;2616240;54;20496;-78
2022/08/20 07:11:54;;;;;;;24.10;19.00;;;19.60;99.90;;;;;;2616666;54;20392;-78
2022/08/20 07:14:21;;;;;;;26.83;19.10;;;19.50;99.90;;;;;;2616330;54;20538;-78
2022/08/20 07:26:52;;;;;;;18.50;15.03;;;19.70;99.90;;;;;;2616856;54;20410;-79
2022/08/20 07:32:41;;;;;;;18.23;13.60;;;20.30;99.90;;;;;;2616466;54;20133;-80
2022/08/20 07:38:31;;;;;;;15.17;13.57;;;20.50;99.90;;;;;;2616836;54;20471;-80
2022/08/20 07:44:20;;;;;;;15.90;14.30;;;20.50;99.90;;;;;;2616598;54;20392;-78
2022/08/20 07:50:11;;;;;;;15.80;14.20;;;21.70;99.90;;;;;;2616845;54;20355;-78
2022/08/20 07:55:58;;;;;;;16.17;14.67;;;21.70;99.90;;;;;;2616548;54;20367;-78
2022/08/20 08:01:46;;;;;;;16.87;15.33;;;21.90;99.90;;;;;;2616455;54;20412;-80
2022/08/20 08:07:35;;;;;;;19.20;17.17;;;21.50;99.90;;;;;;2616661;54;20126;-79
2022/08/20 08:13:26;;;;;;;21.03;19.10;;;21.30;99.90;;;;;;2616567;54;20379;-79
2022/08/20 08:19:16;;;;;;;21.73;19.43;;;21.10;99.90;;;;;;2616581;54;20386;-79
2022/08/20 08:25:05;;;;;;;21.57;19.57;;;21.70;99.90;;;;;;2616813;54;20988;-78
2022/08/20 08:28:20;;;;;;;22.33;20.03;;;21.80;99.90;;;;;;2616744;54;20421;-80
2022/08/20 08:34:08;;;;;;;22.83;20.43;;;22.10;99.90;;;;;;2616287;54;20387;-79
2022/08/20 08:39:56;;;;;;;22.83;20.63;;;21.70;99.90;;;;;;2616547;54;20957;-80
2022/08/20 08:45:47;;;;;;;21.90;19.87;;;22.00;99.90;;;;;;2617227;54;20134;-80
2022/08/20 08:51:40;;;;;;;22.90;20.67;;;21.40;99.90;;;;;;2617349;54;20395;-81
2022/08/20 08:57:29;;;;;;;24.10;21.60;;;21.80;99.90;;;;;;2618100;54;20928;-81
2022/08/20 09:09:47;;;;;;;27.03;24.23;;;21.60;99.90;;;;;;2617758;54;20380;-81
2022/08/20 09:15:34;;;;;;;27.50;24.90;;;21.60;99.90;;;;;;2619541;54;20222;-83
2022/08/20 09:21:22;;;;;;;25.97;23.20;;;22.50;99.90;;;;;;2619504;54;20172;-81
2022/08/20 09:27:10;;;;;;;31.03;27.67;;;21.00;99.90;;;;;;2620037;54;20157;-82
2022/08/20 09:32:59;;;;;;;40.67;31.63;;;20.70;99.90;;;;;;2622607;54;20382;-82
2022/08/20 09:38:48;;;;;;;32.43;27.33;;;20.90;99.90;;;;;;2621750;54;20423;-81
2022/08/20 09:44:36;;;;;;;29.93;26.23;;;21.90;99.90;;;;;;2624008;54;20466;-84
2022/08/20 09:50:28;;;;;;;28.70;25.77;;;21.90;99.90;;;;;;2625711;54;20421;-84
2022/08/20 09:56:16;;;;;;;30.10;24.60;;;22.40;99.90;;;;;;2626073;54;20396;-79
2022/08/20 10:02:04;;;;;;;28.57;24.47;;;22.50;99.90;;;;;;2625573;54;20386;-83
2022/08/20 10:07:52;;;;;;;32.20;25.10;;;22.30;99.90;;;;;;2626281;54;20143;-82
2022/08/20 10:13:40;;;;;;;24.90;21.80;;;22.30;99.90;;;;;;2626141;54;20134;-82
2022/08/20 10:19:30;;;;;;;26.97;21.67;;;23.90;99.90;;;;;;2626783;54;20275;-81
2022/08/20 10:25:18;;;;;;;26.23;22.90;;;23.10;99.90;;;;;;2625563;54;20468;-79
2022/08/20 10:31:07;;;;;;;26.97;20.47;;;23.40;99.90;;;;;;2623323;39;20752;-83
2022/08/20 10:36:57;;;;;;;24.17;19.70;;;23.70;99.90;;;;;;2623170;54;20559;-78
2022/08/20 10:42:45;;;;;;;24.87;22.50;;;22.50;99.90;;;;;;2619916;54;20399;-82
2022/08/20 10:48:33;;;;;;;22.67;20.20;;;22.80;99.90;;;;;;2617455;54;20305;-81
2022/08/20 10:54:20;;;;;;;22.73;20.37;;;22.60;99.90;;;;;;2617496;54;20136;-81
2022/08/20 11:00:10;;;;;;;23.57;18.73;;;24.20;99.90;;;;;;2617228;54;20131;-81
2022/08/20 11:05:58;;;;;;;19.80;16.80;;;22.80;99.90;;;;;;2616715;54;20391;-81
2022/08/20 11:11:45;;;;;;;15.80;14.27;;;24.50;99.90;;;;;;2616817;54;20175;-79
2022/08/20 11:17:39;;;;;;;18.30;16.60;;;24.80;99.90;;;;;;2617245;39;20196;-80
2022/08/20 11:23:27;;;;;;;16.27;14.87;;;24.90;99.90;;;;;;2616595;54;20407;-80
2022/08/20 11:33:28;;;;;;;24.43;17.43;;;23.90;99.90;;;;;;2615501;39;21241;-81
2022/08/20 11:39:15;;;;;;;21.00;18.90;;;23.10;99.90;;;;;;2615367;54;20386;-81
2022/08/20 11:45:02;;;;;;;18.63;16.70;;;23.70;99.90;;;;;;2615177;54;20688;-81
2022/08/20 11:50:49;;;;;;;18.57;16.67;;;24.20;99.90;;;;;;2615284;54;20395;-81
2022/08/20 11:56:37;;;;;;;20.07;17.13;;;25.00;99.90;;;;;;2615843;39;20574;-80
2022/08/20 12:02:24;;;;;;;17.37;15.77;;;24.50;99.90;;;;;;2615470;54;20245;-80
2022/08/20 12:08:14;;;;;;;18.67;16.93;;;23.40;99.90;;;;;;2616712;54;20435;-82
2022/08/20 12:14:02;;;;;;;17.47;15.97;;;24.90;99.90;;;;;;2616862;54;20392;-80
2022/08/20 12:19:51;;;;;;;19.23;17.33;;;25.50;92.70;;;;;;2616623;54;20223;-81
2022/08/20 12:25:40;;;;;;;19.20;17.37;;;26.10;96.70;;;;;;2617786;39;20737;-79
2022/08/20 12:31:27;;;;;;;18.83;17.17;;;25.00;80.00;;;;;;2617518;54;20359;-79
2022/08/20 12:37:18;;;;;;;17.83;16.13;;;24.50;70.90;;;;;;2617600;54;20718;-79
2022/08/20 12:43:07;;;;;;;18.73;16.90;;;24.90;76.70;;;;;;2617474;54;20392;-80
2022/08/20 12:48:54;;;;;;;16.57;15.17;;;24.60;68.20;;;;;;2617540;54;20376;-80
2022/08/20 12:54:42;;;;;;;16.73;15.23;;;23.70;89.20;;;;;;2617140;54;20128;-79
2022/08/20 13:00:35;;;;;;;17.20;15.60;;;23.50;85.00;;;;;;2617012;54;20343;-80
2022/08/20 13:06:23;;;;;;;15.50;14.00;;;25.50;54.30;;;;;;2617512;54;20384;-80
2022/08/20 13:12:13;;;;;;;18.27;16.50;;;25.50;44.80;;;;;;2616972;39;20546;-80
2022/08/20 13:18:02;;;;;;;18.10;16.33;;;25.50;58.30;;;;;;2616912;54;20397;-81
2022/08/20 13:23:50;;;;;;;14.60;13.50;;;23.90;62.60;;;;;;2616944;54;20386;-79
2022/08/20 13:33:06;;;;;;;11.23;10.43;;;23.90;52.60;;;;;;2617729;39;20794;-79
2022/08/20 13:38:53;;;;;;;13.30;12.20;;;23.90;55.00;;;;;;2618029;54;20462;-80
2022/08/20 13:44:42;;;;;;;10.50;9.60;;;23.50;53.00;;;;;;2617744;54;20159;-80
2022/08/20 13:50:30;;;;;;;9.33;8.47;;;24.20;50.20;;;;;;2617151;54;20120;-80
2022/08/20 13:56:18;;;;;;;8.47;7.70;;;25.00;35.20;;;;;;2617893;39;20750;-80
2022/08/20 14:02:07;;;;;;;7.73;7.13;;;25.40;32.00;;;;;;2616911;54;20191;-80
2022/08/20 14:07:55;;;;;;;8.47;7.67;;;25.50;28.90;;;;;;2617774;54;20434;-81
2022/08/20 14:13:42;;;;;;;7.80;7.20;;;26.50;27.90;;;;;;2617389;54;20395;-80
2022/08/20 14:19:30;;;;;;;10.50;7.73;;;25.90;31.80;;;;;;2618066;54;20667;-80
2022/08/20 14:25:20;;;;;;;8.90;8.30;;;25.10;36.70;;;;;;2618444;39;20546;-80
2022/08/20 14:28:34;;;;;;;12.80;8.40;;;24.20;39.70;;;;;;2617734;54;21084;-80
2022/08/20 14:30:59;;;;;;;9.83;8.90;;;24.10;41.00;;;;;;2617322;39;20839;-80
2022/08/20 14:36:47;;;;;;;8.00;7.30;;;24.50;41.70;;;;;;2618313;54;20163;-79
2022/08/20 14:42:35;;;;;;;8.27;7.57;;;25.10;41.80;;;;;;2617192;54;20157;-81
2022/08/20 14:48:26;;;;;;;8.70;7.90;;;25.40;38.60;;;;;;2617830;54;20404;-79
2022/08/20 14:54:14;;;;;;;10.30;7.40;;;25.00;40.60;;;;;;2618493;54;20375;-80
2022/08/20 15:00:06;;;;;;;7.27;6.57;;;25.30;36.60;;;;;;2618984;54;20282;-80
2022/08/20 15:05:56;;;;;;;6.77;6.37;;;27.30;26.20;;;;;;2618208;54;20397;-79
2022/08/20 15:11:45;;;;;;;8.60;7.90;;;24.80;25.20;;;;;;2618221;54;20399;-80
2022/08/20 15:17:33;;;;;;;7.97;7.20;;;24.70;32.20;;;;;;2617774;54;20917;-80
2022/08/20 15:23:21;;;;;;;8.90;8.10;;;24.70;32.10;;;;;;2617851;54;20387;-80
2022/08/20 15:33:05;;;;;;;12.17;8.03;;;25.40;27.60;;;;;;2617883;54;20480;-79
2022/08/20 15:38:53;;;;;;;7.40;6.70;;;25.30;25.30;;;;;;2618309;54;20387;-81
2022/08/20 15:44:42;;;;;;;7.77;6.73;;;25.50;26.40;;;;;;2618104;54;20638;-80
2022/08/20 15:50:45;;;;;;;7.83;7.00;;;25.80;20.20;;;;;;2617748;54;20384;-79
2022/08/20 16:09:49;;;;;;;8.60;7.70;;;27.70;15.50;;;;;;2618030;54;20423;-80
2022/08/20 16:15:41;;;;;;;11.93;8.17;;;25.00;19.00;;;;;;2616653;54;20472;-79
2022/08/20 16:21:33;;;;;;;10.53;9.40;;;24.40;20.20;;;;;;2616787;54;20484;-79
2022/08/20 16:53:45;;;;;;;10.80;9.70;;;25.20;17.30;;;;;;2616073;54;20359;-80
2022/08/20 17:05:59;;;;;;;10.30;9.20;;;25.40;15.80;;;;;;2615241;54;20391;-79
2022/08/20 17:11:47;;;;;;;9.13;8.07;;;24.80;15.40;;;;;;2615855;54;20517;-78
2022/08/20 17:17:36;;;;;;;8.73;7.00;;;24.60;14.40;;;;;;2616430;54;20638;-80
2022/08/20 17:23:24;;;;;;;7.20;6.70;;;24.30;13.30;;;;;;2617401;54;20379;-80
2022/08/20 17:39:28;;;;;;;9.47;6.43;;;23.80;13.80;;;;;;2617284;54;20436;-78
2022/08/20 17:45:26;;;;;;;9.20;7.37;;;23.60;14.10;;;;;;2617092;54;20426;-80
2022/08/20 17:51:19;;;;;;;10.53;6.70;;;23.40;15.60;;;;;;2617413;54;20933;-80
2022/08/20 17:57:13;;;;;;;6.50;6.00;;;23.30;16.20;;;;;;2617389;54;20944;-80
2022/08/20 18:14:00;;;;;;;7.57;6.83;;;22.70;18.60;;;;;;2617718;31;20863;-80
2022/08/20 18:39:31;;;;;;;11.20;7.07;;;22.10;21.40;;;;;;2615454;54;20424;-79
2022/08/20 18:45:31;;;;;;;7.70;6.70;;;21.90;22.50;;;;;;2616998;54;20391;-79
2022/08/20 18:51:22;;;;;;;8.43;7.73;;;21.80;25.00;;;;;;2616596;54;20393;-80
2022/08/20 18:57:26;;;;;;;11.10;8.90;;;21.60;24.10;;;;;;2616688;54;20359;-79
2022/08/20 19:03:21;;;;;;;10.27;7.27;;;21.40;32.40;;;;;;2616317;54;20393;-79
2022/08/20 19:06:24;;;;;;;14.63;7.43;;;21.20;32.00;;;;;;2615762;54;20412;-79
2022/08/20 19:15:21;;;;;;;8.90;7.50;;;20.90;33.40;;;;;;2617102;54;20383;-80
2022/08/20 19:21:10;;;;;;;9.00;7.60;;;20.80;38.40;;;;;;2616264;54;20403;-80
2022/08/20 19:27:03;;;;;;;8.47;7.67;;;20.70;36.20;;;;;;2616189;54;20364;-78
2022/08/20 19:42:30;;;;;;;8.80;7.90;;;19.80;64.50;;;;;;2616616;54;20375;-80
2022/08/20 20:01:20;;;;;;;10.60;9.60;;;19.00;94.70;;;;;;2616027;54;20398;-75
2022/08/20 20:13:27;;;;;;;8.83;7.97;;;19.20;99.90;;;;;;2616249;54;20389;-76
2022/08/20 20:19:15;;;;;;;13.83;11.40;;;19.70;83.60;;;;;;2616319;54;20410;-76
2022/08/20 20:31:31;;;;;;;14.73;9.23;;;19.30;91.40;;;;;;2615826;54;20389;-74
2022/08/20 20:37:38;;;;;;;9.47;8.67;;;19.00;94.10;;;;;;2615972;54;20948;-77
2022/08/20 20:43:33;;;;;;;12.30;9.53;;;18.90;96.20;;;;;;2616876;54;20438;-76
2022/08/20 20:49:22;;;;;;;12.07;8.00;;;18.80;96.20;;;;;;2616718;54;20419;-75
2022/08/20 21:01:45;;;;;;;10.03;9.03;;;18.40;99.90;;;;;;2616539;54;20383;-75
2022/08/20 21:07:33;;;;;;;11.63;8.60;;;18.60;99.90;;;;;;2616870;54;20135;-75
2022/08/20 21:13:21;;;;;;;11.13;8.63;;;18.30;99.90;;;;;;2616829;54;20126;-75
2022/08/20 21:19:10;;;;;;;11.80;7.83;;;18.10;99.90;;;;;;2616797;54;20124;-75
2022/08/20 21:24:58;;;;;;;10.77;8.40;;;18.20;99.90;;;;;;2616633;54;20429;-75
2022/08/20 21:30:46;;;;;;;9.27;8.37;;;18.20;99.90;;;;;;2616379;54;20133;-75
2022/08/20 21:36:33;;;;;;;9.67;8.77;;;18.30;99.90;;;;;;2616797;46;20793;-74
2022/08/20 21:39:58;;;;;;;16.20;8.60;;;18.00;99.90;;;;;;2616041;54;20437;-74
2022/08/20 21:45:46;;;;;;;14.20;8.70;;;18.10;99.90;;;;;;2616614;54;20454;-74
2022/08/20 21:51:34;;;;;;;18.93;8.77;;;17.80;99.90;;;;;;2616185;54;20160;-74
2022/08/20 21:57:25;;;;;;;9.60;8.70;;;17.50;99.90;;;;;;2616661;54;20344;-74
2022/08/20 22:03:15;;;;;;;14.83;8.57;;;17.40;99.90;;;;;;2616879;54;20945;-74
2022/08/20 22:09:03;;;;;;;10.13;9.07;;;17.20;99.90;;;;;;2616924;54;20401;-75
2022/08/20 22:14:52;;;;;;;20.90;10.50;;;17.10;99.90;;;;;;2616456;54;20956;-75
2022/08/20 22:20:41;;;;;;;12.10;9.87;;;16.90;99.90;;;;;;2617117;39;20801;-75
2022/08/20 22:26:30;;;;;;;12.57;10.43;;;16.90;99.90;;;;;;2616598;54;20395;-75
2022/08/20 22:32:18;;;;;;;11.93;9.20;;;16.90;99.90;;;;;;2616401;54;20382;-76
2022/08/20 22:35:22;;;;;;;9.97;8.97;;;16.90;99.90;;;;;;2616863;54;20404;-74
2022/08/20 22:41:28;;;;;;;11.27;10.07;;;16.70;99.90;;;;;;2616538;54;20456;-75
2022/08/20 22:47:20;;;;;;;11.80;8.57;;;17.00;99.90;;;;;;2616459;54;20396;-78
2022/08/20 22:53:10;;;;;;;11.80;10.60;;;17.10;99.90;;;;;;2616218;54;20459;-74
2022/08/20 22:58:58;;;;;;;18.63;8.60;;;17.30;99.90;;;;;;2616158;54;20409;-75
2022/08/20 23:04:46;;;;;;;10.83;9.30;;;17.30;99.90;;;;;;2615932;54;20397;-78
2022/08/20 23:10:36;;;;;;;10.43;8.33;;;17.50;99.90;;;;;;2615954;54;20142;-74
2022/08/20 23:16:24;;;;;;;9.43;8.43;;;17.50;99.90;;;;;;2616125;54;20987;-74
2022/08/20 23:22:12;;;;;;;11.77;8.40;;;17.50;99.90;;;;;;2616152;54;20385;-74
2022/08/20 23:28:00;;;;;;;9.27;8.57;;;17.50;99.90;;;;;;2616028;54;20471;-74
2022/08/20 23:33:48;;;;;;;14.50;8.10;;;17.50;99.90;;;;;;2616746;39;20518;-76
2022/08/20 23:36:53;;;;;;;10.10;9.10;;;17.60;99.90;;;;;;2616296;39;20889;-74
2022/08/20 23:39:20;;;;;;;9.70;8.77;;;17.60;99.90;;;;;;2615993;54;20228;-74
2022/08/20 23:45:08;;;;;;;12.40;10.50;;;17.80;99.90;;;;;;2615897;54;20376;-75
2022/08/20 23:50:56;;;;;;;10.40;9.40;;;17.70;99.90;;;;;;2615816;54;20409;-78
2022/08/20 23:56:43;;;;;;;10.10;9.20;;;17.60;99.90;;;;;;2616487;54;20135;-74
